M4 — V7YF6 — position and weather

sailwx.info

Track history (hours):
 
Tides and Currents Weather Stations Pressure Air Temp Water Temp Dewpoint Dewpoint Depression Visibility Wind Speed Wind Dir Waves Ship Positions

M4

Last reported at 2017-Jul-20 20:14 UTC. Time now 2017-Jul-20 20:34 UTC.
Position N 43°33' E 007°01'.

Length 42 m; draft 2.4 m.

Type: Pleasure craft. MMSI: 538070835.

Date/timePositionNaut miles runAvg speedWind from/ knotsBaromVisibWave heightAir tempDewpointWater temp
2017-Jul-20 20:14N 43°33' E 007°01'0 0.0
2017-Jul-20 19:59N 43°33' E 007°01'0 0.0
2017-Jul-20 19:17N 43°33' E 007°01'0 0.0
2017-Jul-20 18:50N 43°33' E 007°01'0 0.0
2017-Jul-20 18:29N 43°33' E 007°01'0 0.0
2017-Jul-20 17:59N 43°33' E 007°01'0 0.0
2017-Jul-20 17:20N 43°33' E 007°01'0 0.0
2017-Jul-20 16:50N 43°33' E 007°01'0 0.0
2017-Jul-20 16:20N 43°33' E 007°01'0 0.0
2017-Jul-20 15:50N 43°33' E 007°01'0 0.0
2017-Jul-20 15:23N 43°33' E 007°01'0 0.0
2017-Jul-20 14:53N 43°33' E 007°01'0 0.0
2017-Jul-20 13:53N 43°33' E 007°01'0 0.0
2017-Jul-20 13:26N 43°33' E 007°01'0 0.0
2017-Jul-20 12:56N 43°33' E 007°01'0 0.0
2017-Jul-20 12:26N 43°33' E 007°01'0 0.0
2017-Jul-20 11:56N 43°33' E 007°01'0 0.0
2017-Jul-20 11:30N 43°33' E 007°01'1 1.1
2017-Jul-20 11:00N 43°32' E 007°01'0 0.2
2017-Jul-20 10:30N 43°32' E 007°01'2 4.9
2017-Jul-20 10:00N 43°32' E 007°05'14 0.8
2017-Jul-19 15:46N 43°42' E 007°19'0 0.0
2017-Jul-19 15:31N 43°42' E 007°19'2 4.4
2017-Jul-19 15:00N 43°41' E 007°22'4 8.0
2017-Jul-19 14:30N 43°44' E 007°26'0 0.9
2017-Jul-19 14:00N 43°44' E 007°27'3 4.0
2017-Jul-19 13:22N 43°45' E 007°30'2 5.3
2017-Jul-19 12:56N 43°44' E 007°27'4 6.9
2017-Jul-19 12:18N 43°42' E 007°22'2 5.5
2017-Jul-19 11:57N 43°43' E 007°24'12 0.6
2017-Jul-18 16:07N 43°35' E 007°13'311.0
2017-Jul-18 15:48N 43°33' E 007°09'310.8
2017-Jul-18 15:29N 43°32' E 007°05'1 1.5
2017-Jul-18 14:49N 43°31' E 007°03'0 0.0
2017-Jul-18 13:49N 43°31' E 007°03'0 0.0
2017-Jul-18 13:22N 43°31' E 007°03'0 0.0
2017-Jul-18 12:52N 43°31' E 007°03'0 0.0
2017-Jul-18 12:22N 43°31' E 007°03'0 0.0
2017-Jul-18 11:58N 43°31' E 007°03'0 0.0
2017-Jul-18 11:28N 43°31' E 007°03'0 0.0
2017-Jul-18 10:55N 43°31' E 007°03'0 0.0
2017-Jul-18 10:25N 43°31' E 007°03'0 0.0
2017-Jul-18 09:55N 43°31' E 007°03'0 0.0
2017-Jul-18 09:25N 43°31' E 007°03'0 0.2
2017-Jul-18 09:00N 43°31' E 007°03'2 3.5
2017-Jul-18 08:31N 43°33' E 007°01'0 0.0
2017-Jul-18 08:01N 43°33' E 007°01'0 0.1
2017-Jul-18 07:30N 43°33' E 007°02'0 0.0
2017-Jul-18 07:00N 43°33' E 007°02'0 0.0
2017-Jul-18 06:30N 43°33' E 007°02'0 0.0
2017-Jul-18 06:01N 43°33' E 007°02'0 0.1
2017-Jul-18 05:30N 43°33' E 007°02'0 0.0
2017-Jul-18 05:01N 43°33' E 007°02'0 0.0
2017-Jul-18 04:30N 43°33' E 007°01'0 0.0
2017-Jul-18 04:00N 43°33' E 007°01'0 0.0
2017-Jul-18 03:30N 43°33' E 007°01'0 0.0
2017-Jul-18 03:00N 43°33' E 007°02'0 0.0
2017-Jul-18 02:30N 43°33' E 007°02'0 0.0
2017-Jul-18 02:01N 43°33' E 007°02'0 0.0
2017-Jul-18 01:30N 43°33' E 007°02'0 0.0
2017-Jul-18 01:00N 43°33' E 007°02'0 0.0
2017-Jul-18 00:30N 43°33' E 007°01'0 0.0
2017-Jul-18 00:00N 43°33' E 007°02'0 0.0
2017-Jul-17 23:30N 43°33' E 007°02'0 0.0
2017-Jul-17 23:00N 43°33' E 007°02'0 0.0
2017-Jul-17 22:31N 43°33' E 007°02'0 0.0
2017-Jul-17 22:01N 43°33' E 007°02'0 0.0
2017-Jul-17 21:30N 43°33' E 007°02'0 0.0
2017-Jul-17 21:01N 43°33' E 007°02'0 0.0
2017-Jul-17 20:31N 43°33' E 007°02'0 0.0
2017-Jul-17 20:00N 43°33' E 007°02'0 0.0
2017-Jul-17 19:31N 43°33' E 007°02'0 0.0
2017-Jul-17 19:01N 43°33' E 007°02'0 0.6
2017-Jul-17 18:30N 43°32' E 007°01'510.7
2017-Jul-17 18:01N 43°28' E 006°58'510.8
2017-Jul-17 17:30N 43°24' E 006°52'510.8
2017-Jul-17 17:00N 43°21' E 006°46'10 0.4
2017-Jul-16 17:51N 43°27' E 006°58'411.0
2017-Jul-16 17:30N 43°29' E 007°02'26 1.1
2017-Jul-15 17:58N 43°33' E 007°38'2110.9
2017-Jul-15 16:02N 43°20' E 008°02'110.6
2017-Jul-15 15:58N 43°20' E 008°03'510.7
2017-Jul-15 15:30N 43°17' E 008°08'510.8
2017-Jul-15 15:00N 43°14' E 008°14'1110.8
2017-Jul-15 14:00N 43°08' E 008°26'510.8
2017-Jul-15 13:30N 43°05' E 008°32'2010.5
2017-Jul-15 11:34N 42°53' E 008°55'110.1
2017-Jul-15 11:28N 42°52' E 008°56'12 0.6
2017-Jul-14 15:36N 42°45' E 009°09'1010.5
2017-Jul-14 14:38N 42°40' E 008°57'210.3
2017-Jul-14 14:28N 42°40' E 008°55'710.0
2017-Jul-14 13:47N 42°36' E 008°47'28 2.7
2017-Jul-14 03:21N 42°56' E 008°20'510.3
2017-Jul-14 02:51N 42°59' E 008°15'410.5
2017-Jul-14 02:30N 43°02' E 008°11'510.5
2017-Jul-14 02:00N 43°06' E 008°07'510.3
2017-Jul-14 01:30N 43°09' E 008°02'510.5
2017-Jul-14 01:00N 43°13' E 007°57'510.3
2017-Jul-14 00:30N 43°17' E 007°53'510.4
2017-Jul-14 00:00N 43°21' E 007°48'510.5
2017-Jul-13 23:30N 43°25' E 007°43'510.2
2017-Jul-13 23:00N 43°28' E 007°38'510.3
2017-Jul-13 22:30N 43°32' E 007°33'510.5
2017-Jul-13 22:00N 43°36' E 007°28'610.5
2017-Jul-13 21:29N 43°40' E 007°23'2 1.0
2017-Jul-13 19:11N 43°42' E 007°20'0 0.0
2017-Jul-13 18:50N 43°42' E 007°20'0 0.0
2017-Jul-13 18:14N 43°42' E 007°20'0 0.1
2017-Jul-13 17:59N 43°42' E 007°20'9 0.2
2017-Jul-11 15:25N 43°35' E 007°13'510.6
2017-Jul-11 14:55N 43°32' E 007°07'3 5.6
2017-Jul-11 14:26N 43°32' E 007°03'0 0.0
2017-Jul-11 13:56N 43°32' E 007°03'0 0.0
2017-Jul-11 13:29N 43°32' E 007°03'0 0.0
2017-Jul-11 12:59N 43°32' E 007°03'0 0.0
2017-Jul-11 12:29N 43°32' E 007°03'2 4.0
2017-Jul-11 12:00N 43°32' E 007°06'  
Track history (hours):
 
Tides and Currents Weather Stations Pressure Air Temp Water Temp Dewpoint Dewpoint Depression Visibility Wind Speed Wind Dir Waves Ship Positions

M4

Last reported at 2017-Jul-20 20:14 UTC. Time now 2017-Jul-20 20:34 UTC.
Position N 43°33' E 007°01'.

Length 42 m; draft 2.4 m.

Type: Pleasure craft. MMSI: 538070835.

Date/timePositionNaut miles runAvg speedWind from/ knotsBaromVisibWave heightAir tempDewpointWater temp
2017-Jul-20 20:14N 43°33' E 007°01'0 0.0
2017-Jul-20 19:59N 43°33' E 007°01'0 0.0
2017-Jul-20 19:17N 43°33' E 007°01'0 0.0
2017-Jul-20 18:50N 43°33' E 007°01'0 0.0
2017-Jul-20 18:29N 43°33' E 007°01'0 0.0
2017-Jul-20 17:59N 43°33' E 007°01'0 0.0
2017-Jul-20 17:20N 43°33' E 007°01'0 0.0
2017-Jul-20 16:50N 43°33' E 007°01'0 0.0
2017-Jul-20 16:20N 43°33' E 007°01'0 0.0
2017-Jul-20 15:50N 43°33' E 007°01'0 0.0
2017-Jul-20 15:23N 43°33' E 007°01'0 0.0
2017-Jul-20 14:53N 43°33' E 007°01'0 0.0
2017-Jul-20 13:53N 43°33' E 007°01'0 0.0
2017-Jul-20 13:26N 43°33' E 007°01'0 0.0
2017-Jul-20 12:56N 43°33' E 007°01'0 0.0
2017-Jul-20 12:26N 43°33' E 007°01'0 0.0
2017-Jul-20 11:56N 43°33' E 007°01'0 0.0
2017-Jul-20 11:30N 43°33' E 007°01'1 1.1
2017-Jul-20 11:00N 43°32' E 007°01'0 0.2
2017-Jul-20 10:30N 43°32' E 007°01'2 4.9
2017-Jul-20 10:00N 43°32' E 007°05'14 0.8
2017-Jul-19 15:46N 43°42' E 007°19'0 0.0
2017-Jul-19 15:31N 43°42' E 007°19'2 4.4
2017-Jul-19 15:00N 43°41' E 007°22'4 8.0
2017-Jul-19 14:30N 43°44' E 007°26'0 0.9
2017-Jul-19 14:00N 43°44' E 007°27'3 4.0
2017-Jul-19 13:22N 43°45' E 007°30'2 5.3
2017-Jul-19 12:56N 43°44' E 007°27'4 6.9
2017-Jul-19 12:18N 43°42' E 007°22'2 5.5
2017-Jul-19 11:57N 43°43' E 007°24'12 0.6
2017-Jul-18 16:07N 43°35' E 007°13'311.0
2017-Jul-18 15:48N 43°33' E 007°09'310.8
2017-Jul-18 15:29N 43°32' E 007°05'1 1.5
2017-Jul-18 14:49N 43°31' E 007°03'0 0.0
2017-Jul-18 13:49N 43°31' E 007°03'0 0.0
2017-Jul-18 13:22N 43°31' E 007°03'0 0.0
2017-Jul-18 12:52N 43°31' E 007°03'0 0.0
2017-Jul-18 12:22N 43°31' E 007°03'0 0.0
2017-Jul-18 11:58N 43°31' E 007°03'0 0.0
2017-Jul-18 11:28N 43°31' E 007°03'0 0.0
2017-Jul-18 10:55N 43°31' E 007°03'0 0.0
2017-Jul-18 10:25N 43°31' E 007°03'0 0.0
2017-Jul-18 09:55N 43°31' E 007°03'0 0.0
2017-Jul-18 09:25N 43°31' E 007°03'0 0.2
2017-Jul-18 09:00N 43°31' E 007°03'2 3.5
2017-Jul-18 08:31N 43°33' E 007°01'0 0.0
2017-Jul-18 08:01N 43°33' E 007°01'0 0.1
2017-Jul-18 07:30N 43°33' E 007°02'0 0.0
2017-Jul-18 07:00N 43°33' E 007°02'0 0.0
2017-Jul-18 06:30N 43°33' E 007°02'0 0.0
2017-Jul-18 06:01N 43°33' E 007°02'0 0.1
2017-Jul-18 05:30N 43°33' E 007°02'0 0.0
2017-Jul-18 05:01N 43°33' E 007°02'0 0.0
2017-Jul-18 04:30N 43°33' E 007°01'0 0.0
2017-Jul-18 04:00N 43°33' E 007°01'0 0.0
2017-Jul-18 03:30N 43°33' E 007°01'0 0.0
2017-Jul-18 03:00N 43°33' E 007°02'0 0.0
2017-Jul-18 02:30N 43°33' E 007°02'0 0.0
2017-Jul-18 02:01N 43°33' E 007°02'0 0.0
2017-Jul-18 01:30N 43°33' E 007°02'0 0.0
2017-Jul-18 01:00N 43°33' E 007°02'0 0.0
2017-Jul-18 00:30N 43°33' E 007°01'0 0.0
2017-Jul-18 00:00N 43°33' E 007°02'0 0.0
2017-Jul-17 23:30N 43°33' E 007°02'0 0.0
2017-Jul-17 23:00N 43°33' E 007°02'0 0.0
2017-Jul-17 22:31N 43°33' E 007°02'0 0.0
2017-Jul-17 22:01N 43°33' E 007°02'0 0.0
2017-Jul-17 21:30N 43°33' E 007°02'0 0.0
2017-Jul-17 21:01N 43°33' E 007°02'0 0.0
2017-Jul-17 20:31N 43°33' E 007°02'0 0.0
2017-Jul-17 20:00N 43°33' E 007°02'0 0.0
2017-Jul-17 19:31N 43°33' E 007°02'0 0.0
2017-Jul-17 19:01N 43°33' E 007°02'0 0.6
2017-Jul-17 18:30N 43°32' E 007°01'510.7
2017-Jul-17 18:01N 43°28' E 006°58'510.8
2017-Jul-17 17:30N 43°24' E 006°52'510.8
2017-Jul-17 17:00N 43°21' E 006°46'10 0.4
2017-Jul-16 17:51N 43°27' E 006°58'411.0
2017-Jul-16 17:30N 43°29' E 007°02'26 1.1
2017-Jul-15 17:58N 43°33' E 007°38'2110.9
2017-Jul-15 16:02N 43°20' E 008°02'110.6
2017-Jul-15 15:58N 43°20' E 008°03'510.7
2017-Jul-15 15:30N 43°17' E 008°08'510.8
2017-Jul-15 15:00N 43°14' E 008°14'1110.8
2017-Jul-15 14:00N 43°08' E 008°26'510.8
2017-Jul-15 13:30N 43°05' E 008°32'2010.5
2017-Jul-15 11:34N 42°53' E 008°55'110.1
2017-Jul-15 11:28N 42°52' E 008°56'12 0.6
2017-Jul-14 15:36N 42°45' E 009°09'1010.5
2017-Jul-14 14:38N 42°40' E 008°57'210.3
2017-Jul-14 14:28N 42°40' E 008°55'710.0
2017-Jul-14 13:47N 42°36' E 008°47'28 2.7
2017-Jul-14 03:21N 42°56' E 008°20'510.3
2017-Jul-14 02:51N 42°59' E 008°15'410.5
2017-Jul-14 02:30N 43°02' E 008°11'510.5
2017-Jul-14 02:00N 43°06' E 008°07'510.3
2017-Jul-14 01:30N 43°09' E 008°02'510.5
2017-Jul-14 01:00N 43°13' E 007°57'510.3
2017-Jul-14 00:30N 43°17' E 007°53'510.4
2017-Jul-14 00:00N 43°21' E 007°48'510.5
2017-Jul-13 23:30N 43°25' E 007°43'510.2
2017-Jul-13 23:00N 43°28' E 007°38'510.3
2017-Jul-13 22:30N 43°32' E 007°33'510.5
2017-Jul-13 22:00N 43°36' E 007°28'610.5
2017-Jul-13 21:29N 43°40' E 007°23'2 1.0
2017-Jul-13 19:11N 43°42' E 007°20'0 0.0
2017-Jul-13 18:50N 43°42' E 007°20'0 0.0
2017-Jul-13 18:14N 43°42' E 007°20'0 0.1
2017-Jul-13 17:59N 43°42' E 007°20'9 0.2
2017-Jul-11 15:25N 43°35' E 007°13'510.6
2017-Jul-11 14:55N 43°32' E 007°07'3 5.6
2017-Jul-11 14:26N 43°32' E 007°03'0 0.0
2017-Jul-11 13:56N 43°32' E 007°03'0 0.0
2017-Jul-11 13:29N 43°32' E 007°03'0 0.0
2017-Jul-11 12:59N 43°32' E 007°03'0 0.0
2017-Jul-11 12:29N 43°32' E 007°03'2 4.0
2017-Jul-11 12:00N 43°32' E 007°06'  

Dump ship's entire track history